createdAt,value
2019-01-21T00:00:15.973Z,-3.00
2019-01-21T00:01:16.042Z,-3.08
2019-01-21T00:02:16.308Z,-3.09
2019-01-21T00:03:15.566Z,-3.15
2019-01-21T00:04:15.827Z,-3.18
2019-01-21T00:05:16.086Z,-3.22
2019-01-21T00:06:16.612Z,-3.29
2019-01-21T00:07:15.877Z,-3.32
2019-01-21T00:08:16.142Z,-3.41
2019-01-21T00:09:15.399Z,-3.47
2019-01-21T00:10:15.675Z,-3.46
2019-01-21T00:11:15.714Z,-3.43
2019-01-21T00:12:15.989Z,-3.44
2019-01-21T00:13:16.255Z,-3.49
2019-01-21T00:14:15.515Z,-3.51
2019-01-21T00:15:15.787Z,-3.53
2019-01-21T00:16:16.043Z,-3.66
2019-01-21T00:17:22.222Z,-3.66
2019-01-21T00:18:15.845Z,-3.67
2019-01-21T00:19:16.114Z,-3.68
2019-01-21T00:20:16.379Z,-3.71
2019-01-21T00:21:15.420Z,-3.70
2019-01-21T00:22:15.691Z,-3.64
2019-01-21T00:23:15.957Z,-3.67
2019-01-21T00:24:16.233Z,-3.67
2019-01-21T00:25:15.504Z,-3.70
2019-01-21T00:26:15.757Z,-3.70
2019-01-21T00:27:16.026Z,-3.76
2019-01-21T00:28:16.283Z,-3.83
2019-01-21T00:29:15.544Z,-3.83
2019-01-21T00:30:15.821Z,-3.87
2019-01-21T00:31:15.865Z,-3.93
2019-01-21T00:32:16.128Z,-3.91
2019-01-21T00:33:16.407Z,-3.94
2019-01-21T00:34:15.680Z,-3.98
2019-01-21T00:35:15.953Z,-3.98
2019-01-21T00:36:16.218Z,-4.01
2019-01-21T00:37:15.480Z,-4.06
2019-01-21T00:38:15.733Z,-4.11
2019-01-21T00:39:16.003Z,-4.11
2019-01-21T00:40:16.276Z,-4.15
2019-01-21T00:41:16.328Z,-4.16
2019-01-21T00:42:15.598Z,-4.12
2019-01-21T00:43:15.857Z,-4.15
2019-01-21T00:44:16.114Z,-4.15
2019-01-21T00:45:16.382Z,-4.19
2019-01-21T00:46:15.640Z,-4.21
2019-01-21T00:47:15.903Z,-4.22
2019-01-21T00:48:16.163Z,-4.32
2019-01-21T00:49:15.430Z,-4.30
2019-01-21T00:50:16.624Z,-4.37
2019-01-21T00:51:15.752Z,-4.39
2019-01-21T00:52:16.014Z,-4.45
2019-01-21T00:53:16.277Z,-4.46
2019-01-21T00:54:15.544Z,-4.49
2019-01-21T00:55:15.806Z,-4.56
2019-01-21T00:56:16.082Z,-4.58
2019-01-21T00:57:16.344Z,-4.65
2019-01-21T00:58:15.603Z,-4.64
2019-01-21T00:59:15.859Z,-4.60
2019-01-21T01:00:16.133Z,-4.63
2019-01-21T01:01:16.190Z,-4.64
2019-01-21T01:02:15.453Z,-4.70
2019-01-21T01:03:15.734Z,-4.71
2019-01-21T01:04:15.993Z,-4.74
2019-01-21T01:05:16.263Z,-4.75
2019-01-21T01:06:15.539Z,-4.77
2019-01-21T01:07:15.800Z,-4.81
2019-01-21T01:08:16.073Z,-4.84
2019-01-21T01:09:16.344Z,-4.84
2019-01-21T01:10:15.620Z,-4.84
2019-01-21T01:11:15.655Z,-4.85
2019-01-21T01:12:15.919Z,-4.88
2019-01-21T01:13:16.184Z,-4.91
2019-01-21T01:14:15.451Z,-5.02
2019-01-21T01:15:15.728Z,-5.08
2019-01-21T01:16:15.987Z,-5.12
2019-01-21T01:17:16.260Z,-5.13
2019-01-21T01:18:15.528Z,-5.11
2019-01-21T01:19:15.798Z,-5.13
2019-01-21T01:20:16.076Z,-5.19
2019-01-21T01:21:16.100Z,-5.29
2019-01-21T01:22:16.356Z,-5.29
2019-01-21T01:23:15.627Z,-5.36
2019-01-21T01:24:15.886Z,-5.39
2019-01-21T01:25:16.148Z,-5.43
2019-01-21T01:26:15.404Z,-5.46
2019-01-21T01:27:15.700Z,-5.47
2019-01-21T01:28:15.973Z,-5.53
2019-01-21T01:29:16.245Z,-5.53
2019-01-21T01:30:15.539Z,-5.54
2019-01-21T01:31:15.567Z,-5.54
2019-01-21T01:32:15.840Z,-5.56
2019-01-21T01:33:16.104Z,-5.59
2019-01-21T01:34:16.368Z,-5.60
2019-01-21T01:35:15.645Z,-5.60
2019-01-21T01:36:15.919Z,-5.63
2019-01-21T01:37:16.182Z,-5.68
2019-01-21T01:38:15.448Z,-5.70
2019-01-21T01:39:15.715Z,-5.70
2019-01-21T01:40:15.986Z,-5.78
2019-01-21T01:41:16.031Z,-5.82
2019-01-21T01:42:16.317Z,-5.85
2019-01-21T01:43:15.586Z,-5.88
2019-01-21T01:44:15.873Z,-5.92
2019-01-21T01:45:15.736Z,-5.97
2019-01-21T01:46:16.014Z,-6.06
2019-01-21T01:47:16.310Z,-6.08
2019-01-21T01:48:15.583Z,-6.08
2019-01-21T01:49:15.854Z,-6.08
2019-01-21T01:50:16.143Z,-6.10
2019-01-21T01:51:16.187Z,-6.16
2019-01-21T01:52:15.457Z,-6.19
2019-01-21T01:53:15.726Z,-6.31
2019-01-21T01:54:15.660Z,-6.42
2019-01-21T01:55:15.950Z,-6.40
2019-01-21T01:56:16.232Z,-6.37
2019-01-21T01:57:15.501Z,-6.43
2019-01-21T01:58:15.772Z,-6.46
2019-01-21T01:59:16.034Z,-6.47
2019-01-21T02:00:16.358Z,-6.46
2019-01-21T02:01:16.362Z,-6.47
2019-01-21T02:02:16.049Z,-6.49
2019-01-21T02:03:16.333Z,-6.50
2019-01-21T02:04:15.609Z,-6.52
2019-01-21T02:05:15.879Z,-6.61
2019-01-21T02:06:16.154Z,-6.58
2019-01-21T02:07:15.430Z,-6.60
2019-01-21T02:08:16.231Z,-6.57
2019-01-21T02:09:15.511Z,-6.60
2019-01-21T02:10:15.813Z,-6.66
2019-01-21T02:11:15.841Z,-6.67
2019-01-21T02:12:16.106Z,-6.70
2019-01-21T02:13:16.722Z,-6.81
2019-01-21T02:14:16.004Z,-6.84
2019-01-21T02:15:16.288Z,-6.84
2019-01-21T02:16:15.566Z,-6.85
2019-01-21T02:17:15.838Z,-6.82
2019-01-21T02:18:16.111Z,-6.85
2019-01-21T02:19:15.942Z,-6.85
2019-01-21T02:20:16.224Z,-6.87
2019-01-21T02:21:16.257Z,-6.81
2019-01-21T02:22:15.530Z,-6.81
2019-01-21T02:23:15.803Z,-6.80
2019-01-21T02:24:16.078Z,-6.78
2019-01-21T02:25:16.351Z,-6.75
2019-01-21T02:26:15.627Z,-6.74
2019-01-21T02:27:15.910Z,-6.78
2019-01-21T02:28:15.861Z,-6.77
2019-01-21T02:29:16.153Z,-6.81
2019-01-21T02:30:15.437Z,-6.81
2019-01-21T02:31:15.490Z,-6.82
2019-01-21T02:32:15.764Z,-6.80
2019-01-21T02:33:16.049Z,-6.80
2019-01-21T02:34:16.349Z,-6.80
2019-01-21T02:35:15.654Z,-6.78
2019-01-21T02:36:15.929Z,-6.74
2019-01-21T02:37:16.203Z,-6.73
2019-01-21T02:38:15.492Z,-6.75
2019-01-21T02:39:15.758Z,-6.74
2019-01-21T02:40:16.056Z,-6.74
2019-01-21T02:41:16.096Z,-6.75
2019-01-21T02:42:16.378Z,-6.75
2019-01-21T02:43:15.649Z,-6.80
2019-01-21T02:44:15.911Z,-6.80
2019-01-21T02:45:15.776Z,-6.85
2019-01-21T02:46:16.048Z,-6.80
2019-01-21T02:47:16.324Z,-6.82
2019-01-21T02:48:15.601Z,-6.81
2019-01-21T02:49:15.887Z,-7.01
2019-01-21T02:50:16.228Z,-7.05
2019-01-21T02:51:16.258Z,-7.19
2019-01-21T02:52:15.530Z,-7.25
2019-01-21T02:53:15.818Z,-7.25
2019-01-21T02:54:16.104Z,-7.26
2019-01-21T02:55:16.386Z,-7.27
2019-01-21T02:56:15.668Z,-7.33
2019-01-21T02:57:15.944Z,-7.34
2019-01-21T02:58:16.233Z,-7.36
2019-01-21T02:59:15.512Z,-7.40
2019-01-21T03:00:15.822Z,-7.42
2019-01-21T03:01:15.868Z,-7.43
2019-01-21T03:02:15.678Z,-7.47
2019-01-21T03:03:15.952Z,-7.48
2019-01-21T03:04:16.221Z,-7.53
2019-01-21T03:05:15.505Z,-7.54
2019-01-21T03:06:15.768Z,-7.55
2019-01-21T03:07:16.037Z,-7.60
2019-01-21T03:08:16.314Z,-7.58
2019-01-21T03:09:15.593Z,-7.61
2019-01-21T03:10:15.881Z,-7.61
2019-01-21T03:11:15.922Z,-7.58
2019-01-21T03:12:16.193Z,-7.60
2019-01-21T03:13:15.493Z,-7.60
2019-01-21T03:14:15.775Z,-7.63
2019-01-21T03:15:16.050Z,-7.68
2019-01-21T03:16:16.318Z,-7.71
2019-01-21T03:17:15.590Z,-7.70
2019-01-21T03:18:15.879Z,-7.70
2019-01-21T03:19:15.785Z,-7.70
2019-01-21T03:20:16.068Z,-7.72
2019-01-21T03:21:16.112Z,-7.74
2019-01-21T03:22:16.381Z,-7.72
2019-01-21T03:23:15.667Z,-7.71
2019-01-21T03:24:15.943Z,-7.68
2019-01-21T03:25:16.240Z,-7.68
2019-01-21T03:26:15.521Z,-7.68
2019-01-21T03:27:15.802Z,-7.65
2019-01-21T03:28:16.080Z,-7.64
2019-01-21T03:29:16.362Z,-7.65
2019-01-21T03:30:15.644Z,-7.61
2019-01-21T03:31:15.701Z,-7.61
2019-01-21T03:32:16.004Z,-7.61
2019-01-21T03:33:16.357Z,-7.60
2019-01-21T03:34:15.638Z,-7.61
2019-01-21T03:35:15.945Z,-7.61
2019-01-21T03:36:15.737Z,-7.57
2019-01-21T03:37:16.029Z,-7.63
2019-01-21T03:38:16.302Z,-7.60
2019-01-21T03:39:15.579Z,-7.60
2019-01-21T03:40:15.909Z,-7.61
2019-01-21T03:41:15.924Z,-7.64
2019-01-21T03:42:16.213Z,-7.70
2019-01-21T03:43:15.487Z,-7.70
2019-01-21T03:44:15.774Z,-7.71
2019-01-21T03:45:16.050Z,-7.72
2019-01-21T03:46:16.325Z,-7.72
2019-01-21T03:47:15.611Z,-7.71
2019-01-21T03:48:16.587Z,-7.68
2019-01-21T03:49:16.207Z,-7.65
2019-01-21T03:50:15.487Z,-7.67
2019-01-21T03:51:15.536Z,-7.67
2019-01-21T03:52:15.816Z,-7.65
2019-01-21T03:53:15.716Z,-7.65
2019-01-21T03:54:15.990Z,-7.68
2019-01-21T03:55:16.277Z,-7.64
2019-01-21T03:56:15.553Z,-7.63
2019-01-21T03:57:15.836Z,-7.64
2019-01-21T03:58:16.105Z,-7.63
2019-01-21T03:59:16.389Z,-7.60
2019-01-21T04:00:15.692Z,-7.58
2019-01-21T04:01:16.100Z,-7.60
2019-01-21T04:02:15.819Z,-7.55
2019-01-21T04:03:16.112Z,-7.55
2019-01-21T04:04:16.395Z,-7.55
2019-01-21T04:05:15.664Z,-7.51
2019-01-21T04:06:15.926Z,-7.48
2019-01-21T04:07:16.207Z,-7.46
2019-01-21T04:08:15.476Z,-7.43
2019-01-21T04:09:15.757Z,-7.42
2019-01-21T04:10:15.565Z,-7.37
2019-01-21T04:11:15.628Z,-7.37
2019-01-21T04:12:15.899Z,-7.36
2019-01-21T04:13:16.172Z,-7.30
2019-01-21T04:14:15.462Z,-7.30
2019-01-21T04:15:15.743Z,-7.30
2019-01-21T04:16:16.018Z,-7.29
2019-01-21T04:17:16.312Z,-7.20
2019-01-21T04:18:15.603Z,-7.19
2019-01-21T04:19:15.881Z,-7.13
2019-01-21T04:20:16.178Z,-7.13
2019-01-21T04:21:16.219Z,-7.11
2019-01-21T04:22:15.495Z,-7.06
2019-01-21T04:23:15.764Z,-7.01
2019-01-21T04:24:16.049Z,-6.98
2019-01-21T04:25:16.316Z,-6.98
2019-01-21T04:26:15.593Z,-6.94
2019-01-21T04:27:15.513Z,-6.91
2019-01-21T04:28:15.798Z,-6.88
2019-01-21T04:29:16.082Z,-6.87
2019-01-21T04:30:16.384Z,-6.88
2019-01-21T04:31:15.428Z,-6.87
2019-01-21T04:32:15.716Z,-6.87
2019-01-21T04:33:15.990Z,-6.87
2019-01-21T04:34:16.261Z,-6.85
2019-01-21T04:35:15.552Z,-6.88
2019-01-21T04:36:15.839Z,-6.87
2019-01-21T04:37:16.144Z,-6.82
2019-01-21T04:38:15.435Z,-6.82
2019-01-21T04:39:15.718Z,-6.84
2019-01-21T04:40:16.006Z,-6.87
2019-01-21T04:41:16.077Z,-6.82
2019-01-21T04:42:16.371Z,-6.84
2019-01-21T04:43:15.651Z,-6.80
2019-01-21T04:44:15.432Z,-6.82
2019-01-21T04:45:15.718Z,-6.81
2019-01-21T04:46:16.009Z,-6.75
2019-01-21T04:47:16.282Z,-6.77
2019-01-21T04:48:15.626Z,-6.80
2019-01-21T04:49:15.907Z,-6.82
2019-01-21T04:50:16.214Z,-6.85
2019-01-21T04:51:16.265Z,-6.84
2019-01-21T04:52:15.559Z,-6.87
2019-01-21T04:53:15.841Z,-6.85
2019-01-21T04:54:16.121Z,-6.87
2019-01-21T04:55:15.409Z,-6.88
2019-01-21T04:56:15.692Z,-6.87
2019-01-21T04:57:15.985Z,-6.88
2019-01-21T04:58:16.260Z,-6.88
2019-01-21T04:59:15.528Z,-6.96
2019-01-21T05:00:15.817Z,-6.95
2019-01-21T05:01:15.874Z,-6.99
2019-01-21T05:02:16.163Z,-6.94
2019-01-21T05:03:15.434Z,-6.89
2019-01-21T05:04:15.722Z,-6.89
2019-01-21T05:05:16.008Z,-6.85
2019-01-21T05:06:16.311Z,-6.84
2019-01-21T05:07:15.580Z,-6.84
2019-01-21T05:08:15.846Z,-6.88
2019-01-21T05:09:16.333Z,-6.88
2019-01-21T05:10:15.621Z,-6.92
2019-01-21T05:11:15.675Z,-6.89
2019-01-21T05:12:15.997Z,-6.89
2019-01-21T05:13:16.267Z,-6.95
2019-01-21T05:14:15.530Z,-6.94
2019-01-21T05:15:15.805Z,-7.04
2019-01-21T05:16:16.087Z,-7.01
2019-01-21T05:17:16.380Z,-7.06
2019-01-21T05:18:16.189Z,-7.05
2019-01-21T05:19:15.453Z,-7.02
2019-01-21T05:20:15.734Z,-7.09
2019-01-21T05:21:15.784Z,-7.05
2019-01-21T05:22:16.065Z,-7.09
2019-01-21T05:23:16.341Z,-7.09
2019-01-21T05:24:15.617Z,-7.09
2019-01-21T05:25:15.892Z,-7.15
2019-01-21T05:26:15.786Z,-7.15
2019-01-21T05:27:16.085Z,-7.22
2019-01-21T05:28:16.367Z,-7.16
2019-01-21T05:29:15.659Z,-7.23
2019-01-21T05:30:15.944Z,-7.23
2019-01-21T05:31:15.995Z,-7.23
2019-01-21T05:32:16.516Z,-7.25
2019-01-21T05:33:15.807Z,-7.39
2019-01-21T05:34:15.520Z,-7.43
2019-01-21T05:35:15.799Z,-7.47
2019-01-21T05:36:16.076Z,-7.55
2019-01-21T05:37:16.351Z,-7.58
2019-01-21T05:38:15.628Z,-7.60
2019-01-21T05:39:15.901Z,-7.65
2019-01-21T05:40:16.194Z,-7.64
2019-01-21T05:41:16.220Z,-7.65
2019-01-21T05:42:15.492Z,-7.63
2019-01-21T05:43:16.704Z,-7.63
2019-01-21T05:44:16.036Z,-7.60
2019-01-21T05:45:16.326Z,-7.61
2019-01-21T05:46:15.604Z,-7.60
2019-01-21T05:47:15.864Z,-7.61
2019-01-21T05:48:16.139Z,-7.63
2019-01-21T05:49:15.403Z,-7.61
2019-01-21T05:50:15.675Z,-7.63
2019-01-21T05:51:15.716Z,-7.67
2019-01-21T05:52:15.990Z,-7.68
2019-01-21T05:53:16.265Z,-7.63
2019-01-21T05:54:15.532Z,-7.61
2019-01-21T05:55:15.833Z,-7.65
2019-01-21T05:56:16.101Z,-7.68
2019-01-21T05:57:16.364Z,-7.67
2019-01-21T05:58:15.620Z,-7.75
2019-01-21T05:59:15.895Z,-7.74
2019-01-21T06:00:16.172Z,-7.85
2019-01-21T06:01:16.218Z,-7.91
2019-01-21T06:02:15.488Z,-7.88
2019-01-21T06:03:15.748Z,-7.85
2019-01-21T06:04:16.018Z,-7.82
2019-01-21T06:05:16.296Z,-7.85
2019-01-21T06:06:15.567Z,-7.85
2019-01-21T06:07:15.832Z,-7.84
2019-01-21T06:08:16.097Z,-7.84
2019-01-21T06:09:16.367Z,-7.87
2019-01-21T06:10:15.637Z,-7.85
2019-01-21T06:11:15.679Z,-7.82
2019-01-21T06:12:15.944Z,-7.80
2019-01-21T06:13:16.203Z,-7.85
2019-01-21T06:14:15.780Z,-7.91
2019-01-21T06:15:16.043Z,-8.02
2019-01-21T06:16:16.302Z,-8.06
2019-01-21T06:17:15.566Z,-8.10
2019-01-21T06:18:15.830Z,-8.20
2019-01-21T06:19:16.103Z,-8.22
2019-01-21T06:20:16.373Z,-8.22
2019-01-21T06:21:15.437Z,-8.25
2019-01-21T06:22:15.709Z,-8.30
2019-01-21T06:23:15.964Z,-8.34
2019-01-21T06:24:16.256Z,-8.34
2019-01-21T06:25:15.527Z,-8.36
2019-01-21T06:26:15.799Z,-8.32
2019-01-21T06:27:16.066Z,-8.33
2019-01-21T06:28:16.325Z,-8.32
2019-01-21T06:29:15.585Z,-8.34
2019-01-21T06:30:15.869Z,-8.36
2019-01-21T06:31:15.916Z,-8.40
2019-01-21T06:32:16.184Z,-8.43
2019-01-21T06:33:15.444Z,-8.47
2019-01-21T06:34:15.738Z,-8.50
2019-01-21T06:35:16.043Z,-8.50
2019-01-21T06:36:16.335Z,-8.46
2019-01-21T06:37:15.605Z,-8.44
2019-01-21T06:38:15.885Z,-8.41
2019-01-21T06:39:16.147Z,-8.40
2019-01-21T06:40:15.422Z,-8.37
2019-01-21T06:41:15.453Z,-8.34
2019-01-21T06:42:15.716Z,-8.36
2019-01-21T06:43:15.982Z,-8.30
2019-01-21T06:44:16.248Z,-8.33
2019-01-21T06:45:15.513Z,-8.32
2019-01-21T06:46:15.772Z,-8.27
2019-01-21T06:47:16.038Z,-8.32
2019-01-21T06:48:16.301Z,-8.33
2019-01-21T06:49:15.574Z,-8.33
2019-01-21T06:50:15.848Z,-8.34
2019-01-21T06:51:15.903Z,-8.37
2019-01-21T06:52:16.170Z,-8.39
2019-01-21T06:53:15.429Z,-8.47
2019-01-21T06:54:15.698Z,-8.64
2019-01-21T06:55:15.975Z,-8.68
2019-01-21T06:56:16.239Z,-8.65
2019-01-21T06:57:15.503Z,-8.62
2019-01-21T06:58:15.767Z,-8.61
2019-01-21T06:59:16.046Z,-8.54
2019-01-21T07:00:16.358Z,-8.54
2019-01-21T07:01:16.370Z,-8.60
2019-01-21T07:02:15.637Z,-8.60
2019-01-21T07:03:15.915Z,-8.50
2019-01-21T07:04:16.178Z,-8.51
2019-01-21T07:05:15.460Z,-8.58
2019-01-21T07:06:15.769Z,-8.69
2019-01-21T07:07:16.036Z,-8.77
2019-01-21T07:08:16.308Z,-8.82
2019-01-21T07:09:15.565Z,-8.81
2019-01-21T07:10:15.838Z,-8.82
2019-01-21T07:11:15.901Z,-8.85
2019-01-21T07:12:16.158Z,-8.84
2019-01-21T07:13:15.434Z,-8.81
2019-01-21T07:14:15.696Z,-8.75
2019-01-21T07:15:15.970Z,-8.74
2019-01-21T07:16:16.235Z,-8.79
2019-01-21T07:17:15.495Z,-8.82
2019-01-21T07:18:15.748Z,-8.88
2019-01-21T07:19:16.011Z,-8.85
2019-01-21T07:20:16.291Z,-8.85
2019-01-21T07:21:16.582Z,-8.82
2019-01-21T07:22:15.850Z,-8.84
2019-01-21T07:23:16.121Z,-8.78
2019-01-21T07:24:16.395Z,-8.84
2019-01-21T07:25:15.665Z,-9.03
2019-01-21T07:26:15.927Z,-9.12
2019-01-21T07:27:16.202Z,-9.09
2019-01-21T07:28:15.461Z,-9.09
2019-01-21T07:29:15.724Z,-9.02
2019-01-21T07:30:16.005Z,-9.02
2019-01-21T07:31:16.063Z,-9.02
2019-01-21T07:32:16.330Z,-9.05
2019-01-21T07:33:17.796Z,-9.02
2019-01-21T07:34:16.158Z,-9.05
2019-01-21T07:35:15.421Z,-9.00
2019-01-21T07:36:15.697Z,-9.00
2019-01-21T07:37:15.960Z,-9.00
2019-01-21T07:38:16.225Z,-8.99
2019-01-21T07:39:15.480Z,-8.98
2019-01-21T07:40:15.751Z,-8.92
2019-01-21T07:41:15.790Z,-8.89
2019-01-21T07:42:16.062Z,-8.91
2019-01-21T07:43:16.333Z,-8.92
2019-01-21T07:44:15.597Z,-8.92
2019-01-21T07:45:15.870Z,-8.96
2019-01-21T07:46:16.148Z,-8.92
2019-01-21T07:47:15.416Z,-8.91
2019-01-21T07:48:15.675Z,-8.88
2019-01-21T07:49:17.598Z,-8.85
2019-01-21T07:50:16.091Z,-8.85
2019-01-21T07:51:16.133Z,-8.79
2019-01-21T07:52:15.397Z,-8.77
2019-01-21T07:53:15.671Z,-8.74
2019-01-21T07:54:15.941Z,-8.69
2019-01-21T07:55:16.204Z,-8.69
2019-01-21T07:56:15.474Z,-8.71
2019-01-21T07:57:15.733Z,-8.65
2019-01-21T07:58:16.000Z,-8.67
2019-01-21T07:59:16.268Z,-8.61
2019-01-21T08:00:15.550Z,-8.61
2019-01-21T08:01:15.599Z,-8.57
2019-01-21T08:02:15.870Z,-8.57
2019-01-21T08:03:16.142Z,-8.50
2019-01-21T08:04:15.405Z,-8.40
2019-01-21T08:05:15.672Z,-8.33
2019-01-21T08:06:15.934Z,-8.32
2019-01-21T08:07:16.201Z,-8.33
2019-01-21T08:08:15.473Z,-8.32
2019-01-21T08:09:15.740Z,-8.27
2019-01-21T08:10:16.013Z,-8.26
2019-01-21T08:11:16.068Z,-8.25
2019-01-21T08:12:16.336Z,-8.26
2019-01-21T08:13:15.602Z,-8.19
2019-01-21T08:14:15.868Z,-8.15
2019-01-21T08:15:16.147Z,-8.16
2019-01-21T08:16:15.418Z,-8.12
2019-01-21T08:17:15.701Z,-8.06
2019-01-21T08:18:15.972Z,-8.02
2019-01-21T08:19:16.240Z,-8.02
2019-01-21T08:20:15.513Z,-7.95
2019-01-21T08:21:15.563Z,-7.91
2019-01-21T08:22:15.817Z,-7.90
2019-01-21T08:23:16.088Z,-7.84
2019-01-21T08:24:16.357Z,-7.82
2019-01-21T08:25:15.635Z,-7.80
2019-01-21T08:26:15.898Z,-7.78
2019-01-21T08:27:16.171Z,-7.70
2019-01-21T08:28:15.441Z,-7.67
2019-01-21T08:29:15.707Z,-7.61
2019-01-21T08:30:15.990Z,-7.58
2019-01-21T08:31:16.042Z,-7.55
2019-01-21T08:32:16.322Z,-7.53
2019-01-21T08:33:15.586Z,-7.48
2019-01-21T08:34:15.839Z,-7.43
2019-01-21T08:35:16.111Z,-7.39
2019-01-21T08:36:16.385Z,-7.37
2019-01-21T08:37:15.662Z,-7.33
2019-01-21T08:38:15.928Z,-7.32
2019-01-21T08:39:16.196Z,-7.25
2019-01-21T08:40:15.480Z,-7.22
2019-01-21T08:41:15.528Z,-7.16
2019-01-21T08:42:15.801Z,-7.12
2019-01-21T08:43:16.077Z,-7.09
2019-01-21T08:44:16.343Z,-7.05
2019-01-21T08:45:15.605Z,-6.98
2019-01-21T08:46:15.882Z,-6.98
2019-01-21T08:47:16.148Z,-6.92
2019-01-21T08:48:15.410Z,-6.91
2019-01-21T08:49:15.680Z,-6.84
2019-01-21T08:50:15.958Z,-6.73
2019-01-21T08:51:16.007Z,-6.71
2019-01-21T08:52:16.270Z,-6.64
2019-01-21T08:53:15.542Z,-6.54
2019-01-21T08:54:15.815Z,-6.36
2019-01-21T08:55:16.082Z,-6.36
2019-01-21T08:56:16.346Z,-6.22
2019-01-21T08:57:15.602Z,-6.12
2019-01-21T08:58:15.866Z,-6.15
2019-01-21T08:59:16.142Z,-6.13
2019-01-21T09:00:15.415Z,-6.12
2019-01-21T09:01:15.470Z,-6.06
2019-01-21T09:02:15.744Z,-6.01
2019-01-21T09:03:16.010Z,-5.94
2019-01-21T09:04:16.291Z,-5.88
2019-01-21T09:05:15.558Z,-5.80
2019-01-21T09:06:15.830Z,-5.70
2019-01-21T09:07:16.098Z,-5.60
2019-01-21T09:08:16.391Z,-5.42
2019-01-21T09:09:15.657Z,-5.42
2019-01-21T09:10:15.929Z,-5.37
2019-01-21T09:11:15.988Z,-5.40
2019-01-21T09:12:16.250Z,-5.37
2019-01-21T09:13:15.513Z,-5.39
2019-01-21T09:14:15.776Z,-5.35
2019-01-21T09:15:16.042Z,-5.32
2019-01-21T09:16:16.313Z,-5.32
2019-01-21T09:17:15.620Z,-5.33
2019-01-21T09:18:15.893Z,-5.32
2019-01-21T09:19:16.166Z,-5.22
2019-01-21T09:20:15.452Z,-5.25
2019-01-21T09:21:15.488Z,-5.21
2019-01-21T09:22:15.754Z,-5.16
2019-01-21T09:23:16.014Z,-5.18
2019-01-21T09:24:16.272Z,-5.09
2019-01-21T09:25:15.550Z,-5.05
2019-01-21T09:26:15.811Z,-5.05
2019-01-21T09:27:16.071Z,-4.98
2019-01-21T09:28:16.334Z,-4.99
2019-01-21T09:29:15.605Z,-4.96
2019-01-21T09:30:15.918Z,-4.82
2019-01-21T09:31:15.936Z,-4.70
2019-01-21T09:32:16.206Z,-4.74
2019-01-21T09:33:15.473Z,-4.74
2019-01-21T09:34:15.738Z,-4.71
2019-01-21T09:35:16.016Z,-4.67
2019-01-21T09:36:16.277Z,-4.60
2019-01-21T09:37:15.546Z,-4.67
2019-01-21T09:38:15.812Z,-4.65
2019-01-21T09:39:16.078Z,-4.56
2019-01-21T09:40:16.363Z,-4.50
2019-01-21T09:41:15.395Z,-4.46
2019-01-21T09:42:15.660Z,-4.39
2019-01-21T09:43:15.917Z,-4.33
2019-01-21T09:44:16.188Z,-4.18
2019-01-21T09:45:15.465Z,-4.19
2019-01-21T09:46:15.726Z,-4.14
2019-01-21T09:47:15.989Z,-4.12
2019-01-21T09:48:16.265Z,-4.06
2019-01-21T09:49:15.523Z,-4.05
2019-01-21T09:50:15.804Z,-3.98
2019-01-21T09:51:15.837Z,-4.02
2019-01-21T09:52:16.107Z,-4.02
2019-01-21T09:53:15.406Z,-3.88
2019-01-21T09:54:15.679Z,-3.95
2019-01-21T09:55:15.957Z,-3.95
2019-01-21T09:56:16.231Z,-3.98
2019-01-21T09:57:15.488Z,-3.98
2019-01-21T09:58:15.752Z,-3.99
2019-01-21T09:59:16.017Z,-4.04
2019-01-21T10:00:16.314Z,-3.90
2019-01-21T10:01:16.337Z,-3.88
2019-01-21T10:02:15.621Z,-3.91
2019-01-21T10:03:15.884Z,-3.83
2019-01-21T10:04:16.150Z,-3.76
2019-01-21T10:05:15.419Z,-3.78
2019-01-21T10:06:15.681Z,-3.71
2019-01-21T10:07:15.949Z,-3.67
2019-01-21T10:08:16.214Z,-3.74
2019-01-21T10:09:15.488Z,-3.71
2019-01-21T10:10:15.768Z,-3.71
2019-01-21T10:11:15.815Z,-3.54
2019-01-21T10:12:16.092Z,-3.35
2019-01-21T10:13:16.373Z,-3.30
2019-01-21T10:14:15.643Z,-3.21
2019-01-21T10:15:15.926Z,-3.13
2019-01-21T10:16:16.240Z,-3.30
2019-01-21T10:17:15.506Z,-3.30
2019-01-21T10:18:15.776Z,-2.94
2019-01-21T10:19:16.374Z,-2.94
2019-01-21T10:20:15.655Z,-2.87
2019-01-21T10:21:15.723Z,-2.91
2019-01-21T10:22:15.984Z,-2.84
2019-01-21T10:23:17.085Z,-2.77
2019-01-21T10:24:15.447Z,-2.78
2019-01-21T10:25:15.763Z,-2.78
2019-01-21T10:26:16.036Z,-2.73
2019-01-21T10:27:16.294Z,-2.64
2019-01-21T10:28:15.556Z,-2.45
2019-01-21T10:29:15.825Z,-2.42
2019-01-21T10:30:16.097Z,-2.48
2019-01-21T10:31:16.147Z,-2.50
2019-01-21T10:32:15.417Z,-2.36
2019-01-21T10:33:15.685Z,-2.29
2019-01-21T10:34:15.945Z,-2.25
2019-01-21T10:35:16.209Z,-2.23
2019-01-21T10:36:15.476Z,-2.05
2019-01-21T10:37:15.736Z,-2.11
2019-01-21T10:38:16.000Z,-2.39
2019-01-21T10:39:16.268Z,-2.35
2019-01-21T10:40:15.561Z,-2.38
2019-01-21T10:41:15.585Z,-2.25
2019-01-21T10:42:15.848Z,-2.22
2019-01-21T10:43:16.265Z,-2.22
2019-01-21T10:44:15.656Z,-2.16
2019-01-21T10:45:15.926Z,-2.22
2019-01-21T10:46:16.199Z,-2.26
2019-01-21T10:47:15.465Z,-2.19
2019-01-21T10:48:15.723Z,-2.15
2019-01-21T10:49:15.989Z,-1.87
2019-01-21T10:50:16.301Z,-1.90
2019-01-21T10:51:16.580Z,-1.90
2019-01-21T10:52:15.851Z,-1.95
2019-01-21T10:53:16.111Z,-1.95
2019-01-21T10:54:16.374Z,-1.99
2019-01-21T10:55:15.640Z,-1.91
2019-01-21T10:56:15.914Z,-1.90
2019-01-21T10:57:16.187Z,-1.74
2019-01-21T10:58:15.452Z,-1.70
2019-01-21T10:59:15.717Z,-1.68
2019-01-21T11:00:15.994Z,-1.60
2019-01-21T11:01:16.051Z,-1.67
2019-01-21T11:02:16.323Z,-1.53
2019-01-21T11:03:15.592Z,-1.56
2019-01-21T11:04:15.852Z,-1.59
2019-01-21T11:05:16.121Z,-1.66
2019-01-21T11:06:15.385Z,-1.70
2019-01-21T11:07:15.646Z,-1.55
2019-01-21T11:08:15.910Z,-1.42
2019-01-21T11:09:16.179Z,-1.42
2019-01-21T11:10:15.457Z,-1.42
2019-01-21T11:11:15.502Z,-1.50
2019-01-21T11:12:15.769Z,-1.47
2019-01-21T11:13:16.037Z,-1.53
2019-01-21T11:14:16.301Z,-1.53
2019-01-21T11:15:15.562Z,-1.57
2019-01-21T11:16:15.838Z,-1.57
2019-01-21T11:17:16.094Z,-1.57
2019-01-21T11:18:15.416Z,-1.60
2019-01-21T11:19:15.702Z,-1.57
2019-01-21T11:20:15.989Z,-1.29
2019-01-21T11:21:16.057Z,-1.21
2019-01-21T11:22:16.331Z,-1.22
2019-01-21T11:23:15.593Z,-1.18
2019-01-21T11:24:16.140Z,-1.18
2019-01-21T11:25:15.797Z,-1.09
2019-01-21T11:26:16.063Z,-0.95
2019-01-21T11:27:16.332Z,-1.07
2019-01-21T11:28:15.601Z,-1.14
2019-01-21T11:29:15.867Z,-1.01
2019-01-21T11:30:16.142Z,-1.05
2019-01-21T11:31:16.202Z,-1.14
2019-01-21T11:32:15.470Z,-1.02
2019-01-21T11:33:15.750Z,-1.00
2019-01-21T11:34:16.029Z,-1.01
2019-01-21T11:35:16.306Z,-1.04
2019-01-21T11:36:15.580Z,-0.98
2019-01-21T11:37:15.847Z,-1.05
2019-01-21T11:38:16.204Z,-1.05
2019-01-21T11:39:15.517Z,-0.95
2019-01-21T11:40:15.813Z,-0.88
2019-01-21T11:41:15.848Z,-0.98
2019-01-21T11:42:16.117Z,-0.98
2019-01-21T11:43:15.387Z,-0.95
2019-01-21T11:44:15.666Z,-0.91
2019-01-21T11:45:18.671Z,-0.88
2019-01-21T11:46:16.266Z,-0.84
2019-01-21T11:47:15.543Z,-0.71
2019-01-21T11:48:15.798Z,-0.81
2019-01-21T11:49:16.063Z,-0.69
2019-01-21T11:50:16.349Z,-0.67
2019-01-21T11:51:15.402Z,-0.66
2019-01-21T11:52:17.596Z,-0.73
2019-01-21T11:53:16.025Z,-0.76
2019-01-21T11:54:16.288Z,-0.70
2019-01-21T11:55:15.556Z,-0.59
2019-01-21T11:56:15.811Z,-0.46
2019-01-21T11:57:16.083Z,-0.52
2019-01-21T11:58:16.341Z,-0.59
2019-01-21T11:59:15.605Z,-0.53
2019-01-21T12:00:15.877Z,-0.39
2019-01-21T12:01:15.926Z,-0.23
2019-01-21T12:02:16.199Z,-0.29
2019-01-21T12:03:15.476Z,-0.49
2019-01-21T12:04:15.743Z,-0.50
2019-01-21T12:05:16.020Z,-0.45
2019-01-21T12:06:16.301Z,-0.31
2019-01-21T12:07:15.566Z,-0.39
2019-01-21T12:08:15.837Z,-0.35
2019-01-21T12:09:16.107Z,-0.35
2019-01-21T12:10:16.387Z,-0.35
2019-01-21T12:11:15.430Z,-0.56
2019-01-21T12:12:15.699Z,-0.57
2019-01-21T12:13:15.963Z,-0.50
2019-01-21T12:14:16.228Z,-0.53
2019-01-21T12:15:15.499Z,-0.57
2019-01-21T12:16:15.761Z,-0.59
2019-01-21T12:17:16.025Z,-0.56
2019-01-21T12:18:16.309Z,-0.33
2019-01-21T12:19:15.575Z,-0.42
2019-01-21T12:20:17.100Z,-0.49
2019-01-21T12:21:15.888Z,-0.42
2019-01-21T12:22:16.155Z,-0.31
2019-01-21T12:23:15.425Z,-0.36
2019-01-21T12:24:15.702Z,-0.33
2019-01-21T12:25:15.969Z,-0.33
2019-01-21T12:26:16.243Z,-0.29
2019-01-21T12:27:15.495Z,-0.28
2019-01-21T12:28:15.770Z,-0.35
2019-01-21T12:29:16.046Z,-0.31
2019-01-21T12:30:16.334Z,-0.22
2019-01-21T12:31:15.396Z,-0.23
2019-01-21T12:32:15.671Z,-0.23
2019-01-21T12:33:15.939Z,-0.19
2019-01-21T12:34:16.208Z,-0.12
2019-01-21T12:35:16.303Z,-0.10
2019-01-21T12:36:15.648Z,-0.10
2019-01-21T12:37:15.916Z,-0.11
2019-01-21T12:38:16.176Z,-0.14
2019-01-21T12:39:15.440Z,-0.14
2019-01-21T12:40:15.720Z,-0.10
2019-01-21T12:41:21.503Z,-0.03
2019-01-21T12:42:16.121Z,-0.07
2019-01-21T12:43:15.382Z,-0.12
2019-01-21T12:44:15.640Z,-0.14
2019-01-21T12:45:15.908Z,-0.04
2019-01-21T12:46:16.180Z,-0.11
2019-01-21T12:47:15.439Z,-0.15
2019-01-21T12:48:15.708Z,-0.12
2019-01-21T12:49:15.971Z,-0.17
2019-01-21T12:50:16.251Z,-0.18
2019-01-21T12:51:16.279Z,-0.10
2019-01-21T12:52:15.542Z,-0.08